Terminal Aerodrome Forecast
Issued by NWS

Home | Current Version | Previous Version | Text Only | Print | Product List | Glossary On
Versions: 1 2 3 4 5 6 7 8 9 10 11 12 13 14 15 16 17
000
FTUS41 KALY 282322
TAFPSF
TAF
KPSF 282322Z 2900/2924 VRB03KT P6SM BKN060 OVC150
     FM290300 VRB03KT P6SM VCSH BKN050 BKN150
     FM290800 VRB03KT 4SM -RA BR OVC050
     FM291100 VRB03KT 2SM -RA BR BKN008 OVC015
     FM291500 35005KT P6SM VCSH BKN030 BKN050 OVC150
     FM291900 35007KT P6SM SCT060 BKN200=

USA.gov is the U.S. government's official web portal to all federal, state and local government web resources and services.